sensor_id;sensor_type;location;lat;lon;timestamp;pressure;altitude;pressure_sealevel;temperature;humidity
70046;BME280;57385;41.832;23.494;2022-09-01T00:00:13;90973.69;;;15.98;77.73
70046;BME280;57385;41.832;23.494;2022-09-01T00:00:33;90970.59;;;15.96;77.98
70046;BME280;57385;41.832;23.494;2022-09-01T00:00:52;90954.53;;;15.89;77.97
70046;BME280;57385;41.832;23.494;2022-09-01T00:01:13;90952.97;;;15.88;77.95
70046;BME280;57385;41.832;23.494;2022-09-01T00:01:38;90967.47;;;15.99;78.10
70046;BME280;57385;41.832;23.494;2022-09-01T00:01:58;90956.63;;;15.92;77.82
70046;BME280;57385;41.832;23.494;2022-09-01T00:02:17;90965.41;;;15.96;77.90
70046;BME280;57385;41.832;23.494;2022-09-01T00:02:37;90957.13;;;15.94;77.69
70046;BME280;57385;41.832;23.494;2022-09-01T00:02:56;90974.47;;;15.99;77.84
70046;BME280;57385;41.832;23.494;2022-09-01T00:03:18;90971.88;;;15.99;77.70
70046;BME280;57385;41.832;23.494;2022-09-01T00:03:38;90957.66;;;15.91;77.69
70046;BME280;57385;41.832;23.494;2022-09-01T00:03:57;90955.31;;;15.95;77.54
70046;BME280;57385;41.832;23.494;2022-09-01T00:04:20;90966.44;;;16.00;77.91
70046;BME280;57385;41.832;23.494;2022-09-01T00:04:41;90969.81;;;16.01;77.57
70046;BME280;57385;41.832;23.494;2022-09-01T00:05:01;90959.72;;;15.94;77.78
70046;BME280;57385;41.832;23.494;2022-09-01T00:05:20;90966.19;;;15.97;77.41
70046;BME280;57385;41.832;23.494;2022-09-01T00:05:40;90969.81;;;15.91;78.12
70046;BME280;57385;41.832;23.494;2022-09-01T00:05:59;90960.72;;;15.83;77.94
70046;BME280;57385;41.832;23.494;2022-09-01T00:06:20;90968.25;;;15.90;77.97
70046;BME280;57385;41.832;23.494;2022-09-01T00:06:40;90970.31;;;15.93;78.00
70046;BME280;57385;41.832;23.494;2022-09-01T00:07:00;90960.47;;;15.85;78.10
70046;BME280;57385;41.832;23.494;2022-09-01T00:07:19;90957.09;;;15.79;78.11
70046;BME280;57385;41.832;23.494;2022-09-01T00:07:39;90973.91;;;15.87;78.21
70046;BME280;57385;41.832;23.494;2022-09-01T00:07:59;90959.94;;;15.83;78.05
70046;BME280;57385;41.832;23.494;2022-09-01T00:08:18;90957.63;;;15.81;78.01
70046;BME280;57385;41.832;23.494;2022-09-01T00:08:37;90954.25;;;15.81;77.89
70046;BME280;57385;41.832;23.494;2022-09-01T00:09:00;90956.59;;;15.87;77.75
70046;BME280;57385;41.832;23.494;2022-09-01T00:09:21;90966.69;;;15.84;77.87
70046;BME280;57385;41.832;23.494;2022-09-01T00:09:41;90958.91;;;15.84;78.01
70046;BME280;57385;41.832;23.494;2022-09-01T00:10:02;90967.19;;;15.86;77.84
70046;BME280;57385;41.832;23.494;2022-09-01T00:10:22;90954.78;;;15.78;77.75
70046;BME280;57385;41.832;23.494;2022-09-01T00:10:42;90956.84;;;15.81;77.59
70046;BME280;57385;41.832;23.494;2022-09-01T00:11:01;90959.69;;;15.79;77.83
70046;BME280;57385;41.832;23.494;2022-09-01T00:11:23;90965.91;;;15.83;77.79
70046;BME280;57385;41.832;23.494;2022-09-01T00:11:45;90953.47;;;15.75;77.84
70046;BME280;57385;41.832;23.494;2022-09-01T00:12:07;90964.88;;;15.84;77.95
70046;BME280;57385;41.832;23.494;2022-09-01T00:12:28;90960.22;;;15.81;78.01
70046;BME280;57385;41.832;23.494;2022-09-01T00:12:47;90963.56;;;15.82;78.05
70046;BME280;57385;41.832;23.494;2022-09-01T00:13:07;90960.88;;;15.56;78.12
70046;BME280;57385;41.832;23.494;2022-09-01T00:13:26;90960.63;;;15.58;78.55
70046;BME280;57385;41.832;23.494;2022-09-01T00:13:47;90961.91;;;15.50;78.53
70046;BME280;57385;41.832;23.494;2022-09-01T00:14:07;90967.56;;;15.42;78.46
70046;BME280;57385;41.832;23.494;2022-09-01T00:14:30;90960.31;;;15.44;78.79
70046;BME280;57385;41.832;23.494;2022-09-01T00:14:50;90944.25;;;15.27;79.22
70046;BME280;57385;41.832;23.494;2022-09-01T00:15:11;90961.06;;;15.34;79.32
70046;BME280;57385;41.832;23.494;2022-09-01T00:15:30;90960.06;;;15.35;79.10
70046;BME280;57385;41.832;23.494;2022-09-01T00:15:50;90941.66;;;15.22;79.60
70046;BME280;57385;41.832;23.494;2022-09-01T00:16:09;90953.00;;;15.21;79.76
70046;BME280;57385;41.832;23.494;2022-09-01T00:16:29;90947.81;;;15.16;80.24
70046;BME280;57385;41.832;23.494;2022-09-01T00:16:48;90958.19;;;15.26;80.03
70046;BME280;57385;41.832;23.494;2022-09-01T00:17:09;90958.72;;;15.28;79.91
70046;BME280;57385;41.832;23.494;2022-09-01T00:17:29;90949.91;;;15.24;80.08
70046;BME280;57385;41.832;23.494;2022-09-01T00:17:49;90944.72;;;15.19;79.96
70046;BME280;57385;41.832;23.494;2022-09-01T00:18:08;90942.66;;;15.21;79.99
70046;BME280;57385;41.832;23.494;2022-09-01T00:18:28;90956.38;;;15.26;79.61
70046;BME280;57385;41.832;23.494;2022-09-01T00:18:50;90960.06;;;15.35;79.87
70046;BME280;57385;41.832;23.494;2022-09-01T00:19:10;90943.44;;;15.21;79.90
70046;BME280;57385;41.832;23.494;2022-09-01T00:19:30;90956.66;;;15.25;79.96
70046;BME280;57385;41.832;23.494;2022-09-01T00:19:50;90956.44;;;15.36;80.07
70046;BME280;57385;41.832;23.494;2022-09-01T00:20:09;90954.06;;;15.35;80.07
70046;BME280;57385;41.832;23.494;2022-09-01T00:20:29;90949.94;;;15.34;79.76
70046;BME280;57385;41.832;23.494;2022-09-01T00:20:48;90952.31;;;15.35;79.90
70046;BME280;57385;41.832;23.494;2022-09-01T00:21:09;90959.81;;;15.42;80.32
70046;BME280;57385;41.832;23.494;2022-09-01T00:21:40;90941.66;;;15.22;80.17
70046;BME280;57385;41.832;23.494;2022-09-01T00:22:00;90957.63;;;15.19;80.16
70046;BME280;57385;41.832;23.494;2022-09-01T00:22:20;90948.81;;;15.09;80.49
70046;BME280;57385;41.832;23.494;2022-09-01T00:22:42;90946.75;;;15.11;80.45
70046;BME280;57385;41.832;23.494;2022-09-01T00:23:01;90954.78;;;15.20;80.88
70046;BME280;57385;41.832;23.494;2022-09-01T00:23:21;90953.28;;;15.24;80.80
70046;BME280;57385;41.832;23.494;2022-09-01T00:23:40;90949.41;;;15.22;80.93
70046;BME280;57385;41.832;23.494;2022-09-01T00:24:00;90962.31;;;15.27;80.95
70046;BME280;57385;41.832;23.494;2022-09-01T00:24:20;90957.63;;;15.14;81.31
70046;BME280;57385;41.832;23.494;2022-09-01T00:24:40;90950.13;;;15.12;81.15
70046;BME280;57385;41.832;23.494;2022-09-01T00:24:59;90957.38;;;15.20;81.13
70046;BME280;57385;41.832;23.494;2022-09-01T00:25:19;90959.75;;;15.27;81.10
70046;BME280;57385;41.832;23.494;2022-09-01T00:25:38;90953.53;;;15.28;80.73
70046;BME280;57385;41.832;23.494;2022-09-01T00:25:58;90958.72;;;15.33;80.44
70046;BME280;57385;41.832;23.494;2022-09-01T00:26:18;90952.00;;;15.32;80.49
70046;BME280;57385;41.832;23.494;2022-09-01T00:26:37;90961.06;;;15.34;79.88
70046;BME280;57385;41.832;23.494;2022-09-01T00:26:57;90958.75;;;15.38;80.09
70046;BME280;57385;41.832;23.494;2022-09-01T00:27:16;90954.31;;;15.28;80.42
70046;BME280;57385;41.832;23.494;2022-09-01T00:27:36;90951.47;;;15.30;80.63
70046;BME280;57385;41.832;23.494;2022-09-01T00:27:55;90954.34;;;15.33;80.46
70046;BME280;57385;41.832;23.494;2022-09-01T00:28:15;90956.66;;;15.35;80.39
70046;BME280;57385;41.832;23.494;2022-09-01T00:28:36;90947.63;;;15.32;79.97
70046;BME280;57385;41.832;23.494;2022-09-01T00:28:56;90955.41;;;15.37;80.27
70046;BME280;57385;41.832;23.494;2022-09-01T00:29:15;90948.13;;;15.34;79.95
70046;BME280;57385;41.832;23.494;2022-09-01T00:29:35;90961.34;;;15.43;80.20
70046;BME280;57385;41.832;23.494;2022-09-01T00:29:54;90952.03;;;15.37;79.90
70046;BME280;57385;41.832;23.494;2022-09-01T00:30:14;90949.97;;;15.39;79.96
70046;BME280;57385;41.832;23.494;2022-09-01T00:30:33;90958.50;;;15.45;79.64
70046;BME280;57385;41.832;23.494;2022-09-01T00:30:53;90962.66;;;15.46;79.92
70046;BME280;57385;41.832;23.494;2022-09-01T00:31:12;90953.84;;;15.41;80.01
70046;BME280;57385;41.832;23.494;2022-09-01T00:31:32;90960.06;;;15.46;79.99
70046;BME280;57385;41.832;23.494;2022-09-01T00:31:52;90962.41;;;15.47;80.08
70046;BME280;57385;41.832;23.494;2022-09-01T00:32:12;90959.03;;;15.47;80.21
70046;BME280;57385;41.832;23.494;2022-09-01T00:32:32;90952.84;;;15.48;80.27
70046;BME280;57385;41.832;23.494;2022-09-01T00:32:51;90947.91;;;15.41;80.48
70046;BME280;57385;41.832;23.494;2022-09-01T00:33:11;90948.69;;;15.41;80.01
70046;BME280;57385;41.832;23.494;2022-09-01T00:33:31;90957.47;;;15.46;80.00
70046;BME280;57385;41.832;23.494;2022-09-01T00:33:51;90948.44;;;15.38;80.99
70046;BME280;57385;41.832;23.494;2022-09-01T00:34:11;90954.38;;;15.44;80.76
70046;BME280;57385;41.832;23.494;2022-09-01T00:34:30;90955.97;;;15.50;80.58
70046;BME280;57385;41.832;23.494;2022-09-01T00:34:50;90955.72;;;15.51;80.54
70046;BME280;57385;41.832;23.494;2022-09-01T00:35:09;90955.72;;;15.51;80.23
70046;BME280;57385;41.832;23.494;2022-09-01T00:35:29;90954.91;;;15.46;80.70
70046;BME280;57385;41.832;23.494;2022-09-01T00:35:48;90949.72;;;15.46;80.74
70046;BME280;57385;41.832;23.494;2022-09-01T00:36:08;90959.28;;;15.45;81.03
70046;BME280;57385;41.832;23.494;2022-09-01T00:36:27;90955.94;;;15.45;80.76
70046;BME280;57385;41.832;23.494;2022-09-01T00:36:47;90944.28;;;15.42;80.58
70046;BME280;57385;41.832;23.494;2022-09-01T00:37:07;90956.44;;;15.47;80.71
70046;BME280;57385;41.832;23.494;2022-09-01T00:37:26;90945.84;;;15.43;81.00
70046;BME280;57385;41.832;23.494;2022-09-01T00:37:46;90951.78;;;15.44;80.64
70046;BME280;57385;41.832;23.494;2022-09-01T00:38:05;90947.41;;;15.39;81.12
70046;BME280;57385;41.832;23.494;2022-09-01T00:38:25;90951.28;;;15.36;81.27
70046;BME280;57385;41.832;23.494;2022-09-01T00:38:45;90954.06;;;15.35;81.23
70046;BME280;57385;41.832;23.494;2022-09-01T00:39:06;90946.59;;;15.33;81.27
70046;BME280;57385;41.832;23.494;2022-09-01T00:39:25;90941.16;;;15.35;80.88
70046;BME280;57385;41.832;23.494;2022-09-01T00:39:45;90954.13;;;15.40;81.15
70046;BME280;57385;41.832;23.494;2022-09-01T00:40:07;90945.59;;;15.39;81.71
70046;BME280;57385;41.832;23.494;2022-09-01T00:40:28;90930.81;;;15.30;81.99
70046;BME280;57385;41.832;23.494;2022-09-01T00:40:47;90944.53;;;15.35;81.50
70046;BME280;57385;41.832;23.494;2022-09-01T00:41:07;90936.75;;;15.30;81.62
70046;BME280;57385;41.832;23.494;2022-09-01T00:41:30;90947.13;;;15.35;81.18
70046;BME280;57385;41.832;23.494;2022-09-01T00:41:50;90933.91;;;15.32;81.25
70046;BME280;57385;41.832;23.494;2022-09-01T00:42:09;90945.59;;;15.39;81.03
70046;BME280;57385;41.832;23.494;2022-09-01T00:42:29;90932.16;;;15.37;80.95
70046;BME280;57385;41.832;23.494;2022-09-01T00:42:48;90932.16;;;15.37;81.19
70046;BME280;57385;41.832;23.494;2022-09-01T00:43:19;90946.63;;;15.44;81.03
70046;BME280;57385;41.832;23.494;2022-09-01T00:43:54;90942.50;;;15.43;80.97
70046;BME280;57385;41.832;23.494;2022-09-01T00:44:16;90942.75;;;15.46;81.13
70046;BME280;57385;41.832;23.494;2022-09-01T00:44:36;90938.34;;;15.47;81.03
70046;BME280;57385;41.832;23.494;2022-09-01T00:44:55;90938.63;;;15.45;80.93
70046;BME280;57385;41.832;23.494;2022-09-01T00:45:15;90936.28;;;15.44;80.77
70046;BME280;57385;41.832;23.494;2022-09-01T00:45:35;90929.56;;;15.43;80.97
70046;BME280;57385;41.832;23.494;2022-09-01T00:45:55;90939.13;;;15.47;80.59
70046;BME280;57385;41.832;23.494;2022-09-01T00:46:27;90931.38;;;15.47;80.37
70046;BME280;57385;41.832;23.494;2022-09-01T00:46:49;90937.31;;;15.48;80.69
70046;BME280;57385;41.832;23.494;2022-09-01T00:47:08;90925.94;;;15.38;80.38
70046;BME280;57385;41.832;23.494;2022-09-01T00:47:30;90915.63;;;15.38;80.24
70046;BME280;57385;41.832;23.494;2022-09-01T00:47:50;90923.63;;;15.42;79.96
70046;BME280;57385;41.832;23.494;2022-09-01T00:48:09;90922.59;;;15.38;80.16
70046;BME280;57385;41.832;23.494;2022-09-01T00:48:29;90936.81;;;15.46;79.85
70046;BME280;57385;41.832;23.494;2022-09-01T00:48:59;90942.28;;;15.49;79.53
70046;BME280;57385;41.832;23.494;2022-09-01T00:49:48;90951.06;;;15.53;79.33
70046;BME280;57385;41.832;23.494;2022-09-01T00:50:11;90934.00;;;15.52;79.16
70046;BME280;57385;41.832;23.494;2022-09-01T00:50:31;90932.41;;;15.46;79.51
70046;BME280;57385;41.832;23.494;2022-09-01T00:50:51;90929.56;;;15.43;79.01
70046;BME280;57385;41.832;23.494;2022-09-01T00:51:11;90940.19;;;15.51;78.89
70046;BME280;57385;41.832;23.494;2022-09-01T00:51:32;90936.03;;;15.45;79.03
70046;BME280;57385;41.832;23.494;2022-09-01T00:51:58;90947.69;;;15.53;79.22
70046;BME280;57385;41.832;23.494;2022-09-01T00:52:28;90931.13;;;15.44;78.80
70046;BME280;57385;41.832;23.494;2022-09-01T00:52:51;90941.22;;;15.50;79.23
70046;BME280;57385;41.832;23.494;2022-09-01T00:53:11;90935.25;;;15.45;78.96
70046;BME280;57385;41.832;23.494;2022-09-01T00:53:31;90937.84;;;15.45;78.89
70046;BME280;57385;41.832;23.494;2022-09-01T00:53:51;90943.81;;;15.50;78.87
70046;BME280;57385;41.832;23.494;2022-09-01T00:54:22;90938.88;;;15.44;78.76
70046;BME280;57385;41.832;23.494;2022-09-01T00:54:46;90924.13;;;15.39;78.44
70046;BME280;57385;41.832;23.494;2022-09-01T00:55:23;90932.94;;;15.43;78.64
70046;BME280;57385;41.832;23.494;2022-09-01T00:55:43;90946.38;;;15.45;78.46
70046;BME280;57385;41.832;23.494;2022-09-01T00:56:04;90946.88;;;15.47;78.66
70046;BME280;57385;41.832;23.494;2022-09-01T00:56:25;90943.53;;;15.41;78.33
70046;BME280;57385;41.832;23.494;2022-09-01T00:56:45;90950.50;;;15.46;78.12
70046;BME280;57385;41.832;23.494;2022-09-01T00:57:06;90948.44;;;15.48;78.24
70046;BME280;57385;41.832;23.494;2022-09-01T00:57:26;90944.03;;;15.44;78.42
70046;BME280;57385;41.832;23.494;2022-09-01T00:57:46;90944.03;;;15.49;78.58
70046;BME280;57385;41.832;23.494;2022-09-01T00:58:06;90946.63;;;15.44;78.69
70046;BME280;57385;41.832;23.494;2022-09-01T00:58:28;90950.50;;;15.46;78.29
70046;BME280;57385;41.832;23.494;2022-09-01T00:58:49;90943.78;;;15.40;78.45
70046;BME280;57385;41.832;23.494;2022-09-01T00:59:09;90956.19;;;15.48;78.56
70046;BME280;57385;41.832;23.494;2022-09-01T00:59:30;90957.78;;;15.49;78.50
70046;BME280;57385;41.832;23.494;2022-09-01T01:00:01;90945.84;;;15.43;78.72
70046;BME280;57385;41.832;23.494;2022-09-01T01:00:27;90952.34;;;15.51;78.44
70046;BME280;57385;41.832;23.494;2022-09-01T01:00:49;90933.97;;;15.37;78.69
70046;BME280;57385;41.832;23.494;2022-09-01T01:01:10;90950.25;;;15.48;78.72
70046;BME280;57385;41.832;23.494;2022-09-01T01:01:30;90945.06;;;15.43;78.67
70046;BME280;57385;41.832;23.494;2022-09-01T01:01:50;90955.97;;;15.50;78.74
70046;BME280;57385;41.832;23.494;2022-09-01T01:02:09;90953.09;;;15.46;78.89
70046;BME280;57385;41.832;23.494;2022-09-01T01:02:29;90939.66;;;15.39;78.58
70046;BME280;57385;41.832;23.494;2022-09-01T01:02:49;90950.25;;;15.43;78.87
70046;BME280;57385;41.832;23.494;2022-09-01T01:03:10;90938.34;;;15.36;78.83
70046;BME280;57385;41.832;23.494;2022-09-01T01:03:29;90942.50;;;15.43;78.48
70046;BME280;57385;41.832;23.494;2022-09-01T01:03:49;90946.63;;;15.38;79.16
70046;BME280;57385;41.832;23.494;2022-09-01T01:04:09;90941.16;;;15.35;78.90
70046;BME280;57385;41.832;23.494;2022-09-01T01:04:29;90950.00;;;15.44;78.80
70046;BME280;57385;41.832;23.494;2022-09-01T01:04:49;90940.16;;;15.36;78.86
70046;BME280;57385;41.832;23.494;2022-09-01T01:05:09;90955.94;;;15.45;78.93
70046;BME280;57385;41.832;23.494;2022-09-01T01:05:32;90952.06;;;15.42;78.97
70046;BME280;57385;41.832;23.494;2022-09-01T01:05:56;90953.59;;;15.43;78.75
70046;BME280;57385;41.832;23.494;2022-09-01T01:06:18;90955.94;;;15.45;78.92
70046;BME280;57385;41.832;23.494;2022-09-01T01:06:38;90939.13;;;15.37;79.09
70046;BME280;57385;41.832;23.494;2022-09-01T01:06:58;90955.41;;;15.43;78.68
70046;BME280;57385;41.832;23.494;2022-09-01T01:07:19;90958.50;;;15.45;79.17
70046;BME280;57385;41.832;23.494;2022-09-01T01:07:41;90952.31;;;15.40;79.16
70046;BME280;57385;41.832;23.494;2022-09-01T01:08:02;90956.19;;;15.43;79.19
70046;BME280;57385;41.832;23.494;2022-09-01T01:08:31;90948.94;;;15.40;79.11
70046;BME280;57385;41.832;23.494;2022-09-01T01:08:50;90949.97;;;15.39;79.03
70046;BME280;57385;41.832;23.494;2022-09-01T01:09:10;90946.63;;;15.38;78.48
70046;BME280;57385;41.832;23.494;2022-09-01T01:09:33;90939.38;;;15.35;79.06
70046;BME280;57385;41.832;23.494;2022-09-01T01:09:54;90953.34;;;15.39;79.01
70046;BME280;57385;41.832;23.494;2022-09-01T01:10:18;90945.84;;;15.38;79.03
70046;BME280;57385;41.832;23.494;2022-09-01T01:10:40;90962.13;;;15.44;78.99
70046;BME280;57385;41.832;23.494;2022-09-01T01:11:08;90948.94;;;15.45;78.73
70046;BME280;57385;41.832;23.494;2022-09-01T01:11:30;90953.88;;;15.47;79.20
70046;BME280;57385;41.832;23.494;2022-09-01T01:11:50;90957.22;;;15.47;78.93
70046;BME280;57385;41.832;23.494;2022-09-01T01:12:11;90950.75;;;15.45;78.43
70046;BME280;57385;41.832;23.494;2022-09-01T01:12:30;90936.81;;;15.40;78.86
70046;BME280;57385;41.832;23.494;2022-09-01T01:12:50;90947.16;;;15.46;78.78
70046;BME280;57385;41.832;23.494;2022-09-01T01:13:14;90955.41;;;15.48;78.71
70046;BME280;57385;41.832;23.494;2022-09-01T01:13:59;90946.09;;;15.41;78.90
70046;BME280;57385;41.832;23.494;2022-09-01T01:14:19;90946.38;;;15.40;78.63
70046;BME280;57385;41.832;23.494;2022-09-01T01:14:38;90939.13;;;15.37;78.71
70046;BME280;57385;41.832;23.494;2022-09-01T01:14:58;90947.91;;;15.41;78.48
70046;BME280;57385;41.832;23.494;2022-09-01T01:15:18;90948.44;;;15.43;78.80
70046;BME280;57385;41.832;23.494;2022-09-01T01:15:39;90934.22;;;15.35;78.30
70046;BME280;57385;41.832;23.494;2022-09-01T01:15:59;90949.22;;;15.44;78.27
70046;BME280;57385;41.832;23.494;2022-09-01T01:16:19;90944.81;;;15.39;78.48
70046;BME280;57385;41.832;23.494;2022-09-01T01:16:41;90946.63;;;15.44;78.53
70046;BME280;57385;41.832;23.494;2022-09-01T01:17:01;90947.41;;;15.44;78.29
70046;BME280;57385;41.832;23.494;2022-09-01T01:17:22;90949.47;;;15.42;78.23
70046;BME280;57385;41.832;23.494;2022-09-01T01:17:41;90945.06;;;15.37;78.36
70046;BME280;57385;41.832;23.494;2022-09-01T01:18:01;90930.31;;;15.33;78.47
70046;BME280;57385;41.832;23.494;2022-09-01T01:18:20;90942.47;;;15.37;78.53
70046;BME280;57385;41.832;23.494;2022-09-01T01:18:41;90938.84;;;15.33;78.23
70046;BME280;57385;41.832;23.494;2022-09-01T01:19:01;90940.63;;;15.33;78.26
70046;BME280;57385;41.832;23.494;2022-09-01T01:19:30;90944.56;;;15.40;78.20
70046;BME280;57385;41.832;23.494;2022-09-01T01:19:55;90948.16;;;15.39;78.21
70046;BME280;57385;41.832;23.494;2022-09-01T01:20:16;90941.97;;;15.35;78.31
70046;BME280;57385;41.832;23.494;2022-09-01T01:20:38;90944.53;;;15.35;78.33
70046;BME280;57385;41.832;23.494;2022-09-01T01:21:02;90933.13;;;15.31;78.19
70046;BME280;57385;41.832;23.494;2022-09-01T01:21:37;90945.06;;;15.37;78.21
70046;BME280;57385;41.832;23.494;2022-09-01T01:21:58;90944.03;;;15.38;78.04
70046;BME280;57385;41.832;23.494;2022-09-01T01:22:34;90940.94;;;15.36;78.29
70046;BME280;57385;41.832;23.494;2022-09-01T01:23:19;90944.56;;;15.40;78.51
70046;BME280;57385;41.832;23.494;2022-09-01T01:23:45;90946.38;;;15.40;78.35
70046;BME280;57385;41.832;23.494;2022-09-01T01:24:30;90945.84;;;15.38;78.54
70046;BME280;57385;41.832;23.494;2022-09-01T01:24:51;90938.06;;;15.33;78.70
70046;BME280;57385;41.832;23.494;2022-09-01T01:25:11;90934.22;;;15.35;78.60
70046;BME280;57385;41.832;23.494;2022-09-01T01:26:16;90942.22;;;15.39;78.51
70046;BME280;57385;41.832;23.494;2022-09-01T01:26:16;90945.59;;;15.39;78.72
70046;BME280;57385;41.832;23.494;2022-09-01T01:26:36;90948.69;;;15.41;78.46
70046;BME280;57385;41.832;23.494;2022-09-01T01:26:55;90939.91;;;15.37;78.48
70046;BME280;57385;41.832;23.494;2022-09-01T01:27:15;90930.31;;;15.33;78.46
70046;BME280;57385;41.832;23.494;2022-09-01T01:27:35;90938.88;;;15.38;78.46
70046;BME280;57385;41.832;23.494;2022-09-01T01:28:11;90946.63;;;15.44;78.42
70046;BME280;57385;41.832;23.494;2022-09-01T01:28:36;90946.63;;;15.44;78.55
70046;BME280;57385;41.832;23.494;2022-09-01T01:28:56;90933.19;;;15.36;78.09
70046;BME280;57385;41.832;23.494;2022-09-01T01:29:16;90938.34;;;15.36;78.08
70046;BME280;57385;41.832;23.494;2022-09-01T01:29:37;90941.19;;;15.40;78.08
70046;BME280;57385;41.832;23.494;2022-09-01T01:29:56;90938.56;;;15.35;77.90
70046;BME280;57385;41.832;23.494;2022-09-01T01:30:18;90942.47;;;15.37;77.82
70046;BME280;57385;41.832;23.494;2022-09-01T01:30:41;90947.63;;;15.32;78.21
70046;BME280;57385;41.832;23.494;2022-09-01T01:31:06;90946.59;;;15.33;78.23
70046;BME280;57385;41.832;23.494;2022-09-01T01:31:26;90937.28;;;15.27;77.84
70046;BME280;57385;41.832;23.494;2022-09-01T01:31:46;90946.84;;;15.32;78.01
70046;BME280;57385;41.832;23.494;2022-09-01T01:32:05;90943.72;;;15.30;78.04
70046;BME280;57385;41.832;23.494;2022-09-01T01:32:25;90933.91;;;15.27;77.99
70046;BME280;57385;41.832;23.494;2022-09-01T01:32:45;90949.16;;;15.28;78.27
70046;BME280;57385;41.832;23.494;2022-09-01T01:33:06;90942.69;;;15.26;78.37
70046;BME280;57385;41.832;23.494;2022-09-01T01:33:34;90945.53;;;15.29;78.10
70046;BME280;57385;41.832;23.494;2022-09-01T01:33:55;90951.47;;;15.30;78.10
70046;BME280;57385;41.832;23.494;2022-09-01T01:34:15;90948.13;;;15.24;78.13
70046;BME280;57385;41.832;23.494;2022-09-01T01:34:34;90941.09;;;15.20;77.93
70046;BME280;57385;41.832;23.494;2022-09-01T01:34:55;90956.91;;;15.28;78.03
70046;BME280;57385;41.832;23.494;2022-09-01T01:35:15;90955.88;;;15.29;78.26
70046;BME280;57385;41.832;23.494;2022-09-01T01:35:36;90932.31;;;15.16;78.14
70046;BME280;57385;41.832;23.494;2022-09-01T01:35:56;90945.00;;;15.22;77.94
70046;BME280;57385;41.832;23.494;2022-09-01T01:36:27;90949.16;;;15.23;78.04
70046;BME280;57385;41.832;23.494;2022-09-01T01:36:47;90946.00;;;15.21;78.13
70046;BME280;57385;41.832;23.494;2022-09-01T01:37:08;90961.81;;;15.30;78.10
70046;BME280;57385;41.832;23.494;2022-09-01T01:37:27;90948.13;;;15.24;78.32
70046;BME280;57385;41.832;23.494;2022-09-01T01:37:47;90940.31;;;15.19;78.30
70046;BME280;57385;41.832;23.494;2022-09-01T01:38:08;90958.72;;;15.28;78.39
70046;BME280;57385;41.832;23.494;2022-09-01T01:38:28;90949.41;;;15.22;78.22
70046;BME280;57385;41.832;23.494;2022-09-01T01:38:48;90952.25;;;15.25;78.44
70046;BME280;57385;41.832;23.494;2022-09-01T01:39:13;90948.59;;;15.21;78.35
70046;BME280;57385;41.832;23.494;2022-09-01T01:39:34;90954.84;;;15.25;78.23
70046;BME280;57385;41.832;23.494;2022-09-01T01:39:53;90956.13;;;15.23;78.51
70046;BME280;57385;41.832;23.494;2022-09-01T01:40:17;90963.88;;;15.28;78.85
70046;BME280;57385;41.832;23.494;2022-09-01T01:40:37;90958.44;;;15.24;78.92
70046;BME280;57385;41.832;23.494;2022-09-01T01:40:57;90960.22;;;15.19;79.03
70046;BME280;57385;41.832;23.494;2022-09-01T01:41:17;90969.56;;;15.25;78.68
70046;BME280;57385;41.832;23.494;2022-09-01T01:41:38;90964.41;;;15.25;78.59
70046;BME280;57385;41.832;23.494;2022-09-01T01:41:58;90957.63;;;15.19;78.85
70046;BME280;57385;41.832;23.494;2022-09-01T01:42:18;90963.88;;;15.23;78.88
70046;BME280;57385;41.832;23.494;2022-09-01T01:42:38;90956.34;;;15.21;78.74
70046;BME280;57385;41.832;23.494;2022-09-01T01:42:57;90957.94;;;15.22;78.71
70046;BME280;57385;41.832;23.494;2022-09-01T01:43:22;90965.16;;;15.25;78.87
70046;BME280;57385;41.832;23.494;2022-09-01T01:43:42;90966.97;;;15.25;78.83
70046;BME280;57385;41.832;23.494;2022-09-01T01:44:03;90960.50;;;15.22;78.92
70046;BME280;57385;41.832;23.494;2022-09-01T01:44:24;90964.09;;;15.21;80.11
70046;BME280;57385;41.832;23.494;2022-09-01T01:44:44;90962.00;;;15.13;80.20
70046;BME280;57385;41.832;23.494;2022-09-01T01:45:05;90960.97;;;15.14;79.84
70046;BME280;57385;41.832;23.494;2022-09-01T01:45:25;90960.19;;;15.08;80.26
70046;BME280;57385;41.832;23.494;2022-09-01T01:45:46;90968.91;;;14.97;81.30
70046;BME280;57385;41.832;23.494;2022-09-01T01:46:08;90965.75;;;14.90;81.35
70046;BME280;57385;41.832;23.494;2022-09-01T01:46:32;90971.44;;;14.92;81.20
70046;BME280;57385;41.832;23.494;2022-09-01T01:46:58;90960.31;;;14.81;81.85
70046;BME280;57385;41.832;23.494;2022-09-01T01:47:17;90971.16;;;14.84;82.21
70046;BME280;57385;41.832;23.494;2022-09-01T01:47:37;90964.19;;;14.84;81.89
70046;BME280;57385;41.832;23.494;2022-09-01T01:47:57;90968.84;;;14.87;82.53
70046;BME280;57385;41.832;23.494;2022-09-01T01:48:21;90963.16;;;14.90;81.24
70046;BME280;57385;41.832;23.494;2022-09-01T01:48:41;90959.09;;;14.94;81.23
70046;BME280;57385;41.832;23.494;2022-09-01T01:49:02;90968.94;;;15.02;81.20
70046;BME280;57385;41.832;23.494;2022-09-01T01:49:26;90965.56;;;15.02;81.10
70046;BME280;57385;41.832;23.494;2022-09-01T01:49:46;90965.81;;;15.00;80.77
70046;BME280;57385;41.832;23.494;2022-09-01T01:50:06;90957.81;;;15.02;80.83
70046;BME280;57385;41.832;23.494;2022-09-01T01:50:29;90970.53;;;15.08;80.56
70046;BME280;57385;41.832;23.494;2022-09-01T01:50:51;90976.22;;;15.10;80.42
70046;BME280;57385;41.832;23.494;2022-09-01T01:51:11;90968.94;;;15.07;80.34
70046;BME280;57385;41.832;23.494;2022-09-01T01:51:30;90961.75;;;15.09;80.15
70046;BME280;57385;41.832;23.494;2022-09-01T01:51:51;90966.59;;;15.06;80.52
70046;BME280;57385;41.832;23.494;2022-09-01T01:52:12;90968.16;;;15.07;80.38
70046;BME280;57385;41.832;23.494;2022-09-01T01:52:32;90964.81;;;15.06;80.16